sensor_id;sensor_type;location;lat;lon;timestamp;temperature;humidity
40538;DHT22;27925;41.874;12.526;2022-10-15T00:00:39;17.40;80.80
40538;DHT22;27925;41.874;12.526;2022-10-15T00:03:05;17.40;80.60
40538;DHT22;27925;41.874;12.526;2022-10-15T00:05:31;17.40;81.00
40538;DHT22;27925;41.874;12.526;2022-10-15T00:07:57;17.40;81.00
40538;DHT22;27925;41.874;12.526;2022-10-15T00:10:22;17.40;80.90
40538;DHT22;27925;41.874;12.526;2022-10-15T00:12:48;17.40;80.60
40538;DHT22;27925;41.874;12.526;2022-10-15T00:15:14;17.30;80.90
40538;DHT22;27925;41.874;12.526;2022-10-15T00:17:40;17.30;80.80
40538;DHT22;27925;41.874;12.526;2022-10-15T00:20:08;17.30;80.80
40538;DHT22;27925;41.874;12.526;2022-10-15T00:22:35;17.30;80.90
40538;DHT22;27925;41.874;12.526;2022-10-15T00:25:01;17.30;80.90
40538;DHT22;27925;41.874;12.526;2022-10-15T00:27:28;17.30;80.80
40538;DHT22;27925;41.874;12.526;2022-10-15T00:29:53;17.20;80.70
40538;DHT22;27925;41.874;12.526;2022-10-15T00:32:19;17.20;80.90
40538;DHT22;27925;41.874;12.526;2022-10-15T00:34:46;17.20;81.00
40538;DHT22;27925;41.874;12.526;2022-10-15T00:37:11;17.20;80.90
40538;DHT22;27925;41.874;12.526;2022-10-15T00:39:37;17.30;80.90
40538;DHT22;27925;41.874;12.526;2022-10-15T00:42:04;17.30;80.90
40538;DHT22;27925;41.874;12.526;2022-10-15T00:46:58;17.30;81.20
40538;DHT22;27925;41.874;12.526;2022-10-15T00:49:42;17.30;81.00
40538;DHT22;27925;41.874;12.526;2022-10-15T00:52:21;17.30;82.00
40538;DHT22;27925;41.874;12.526;2022-10-15T00:55:01;17.20;82.00
40538;DHT22;27925;41.874;12.526;2022-10-15T00:57:29;17.10;82.10
40538;DHT22;27925;41.874;12.526;2022-10-15T00:59:57;17.10;82.40
40538;DHT22;27925;41.874;12.526;2022-10-15T01:02:26;17.10;82.50
40538;DHT22;27925;41.874;12.526;2022-10-15T01:04:52;17.10;82.70
40538;DHT22;27925;41.874;12.526;2022-10-15T01:07:19;17.00;82.70
40538;DHT22;27925;41.874;12.526;2022-10-15T01:09:45;17.00;83.00
40538;DHT22;27925;41.874;12.526;2022-10-15T01:17:47;16.90;83.70
40538;DHT22;27925;41.874;12.526;2022-10-15T01:27:13;16.90;83.60
40538;DHT22;27925;41.874;12.526;2022-10-15T01:38:17;16.80;84.10
40538;DHT22;27925;41.874;12.526;2022-10-15T01:40:47;16.80;84.00
40538;DHT22;27925;41.874;12.526;2022-10-15T01:43:20;16.80;84.30
40538;DHT22;27925;41.874;12.526;2022-10-15T01:45:56;16.80;84.20
40538;DHT22;27925;41.874;12.526;2022-10-15T01:48:25;16.70;84.30
40538;DHT22;27925;41.874;12.526;2022-10-15T01:50:54;16.70;84.20
40538;DHT22;27925;41.874;12.526;2022-10-15T01:53:24;16.70;84.30
40538;DHT22;27925;41.874;12.526;2022-10-15T01:56:00;16.80;84.60
40538;DHT22;27925;41.874;12.526;2022-10-15T01:58:28;16.70;84.50
40538;DHT22;27925;41.874;12.526;2022-10-15T02:00:56;16.70;84.70
40538;DHT22;27925;41.874;12.526;2022-10-15T02:03:23;16.70;84.50
40538;DHT22;27925;41.874;12.526;2022-10-15T02:06:04;16.70;84.70
40538;DHT22;27925;41.874;12.526;2022-10-15T02:08:47;16.70;84.60
40538;DHT22;27925;41.874;12.526;2022-10-15T02:11:16;16.70;84.60
40538;DHT22;27925;41.874;12.526;2022-10-15T02:21:46;16.60;84.50
40538;DHT22;27925;41.874;12.526;2022-10-15T02:24:20;16.60;85.00
40538;DHT22;27925;41.874;12.526;2022-10-15T02:26:47;16.60;85.10
40538;DHT22;27925;41.874;12.526;2022-10-15T02:29:18;16.60;84.70
40538;DHT22;27925;41.874;12.526;2022-10-15T02:31:46;16.60;84.90
40538;DHT22;27925;41.874;12.526;2022-10-15T02:34:16;16.60;84.80
40538;DHT22;27925;41.874;12.526;2022-10-15T02:36:42;16.50;84.70
40538;DHT22;27925;41.874;12.526;2022-10-15T02:39:15;16.50;84.70
40538;DHT22;27925;41.874;12.526;2022-10-15T02:41:43;16.50;84.70
40538;DHT22;27925;41.874;12.526;2022-10-15T02:44:11;16.50;84.80
40538;DHT22;27925;41.874;12.526;2022-10-15T02:46:37;16.40;84.70
40538;DHT22;27925;41.874;12.526;2022-10-15T02:49:03;16.40;84.80
40538;DHT22;27925;41.874;12.526;2022-10-15T02:51:32;16.40;85.00
40538;DHT22;27925;41.874;12.526;2022-10-15T02:53:59;16.30;84.90
40538;DHT22;27925;41.874;12.526;2022-10-15T02:56:26;16.30;85.20
40538;DHT22;27925;41.874;12.526;2022-10-15T02:58:51;16.30;85.20
40538;DHT22;27925;41.874;12.526;2022-10-15T03:01:17;16.20;85.30
40538;DHT22;27925;41.874;12.526;2022-10-15T03:03:43;16.20;85.40
40538;DHT22;27925;41.874;12.526;2022-10-15T03:06:08;16.20;85.60
40538;DHT22;27925;41.874;12.526;2022-10-15T03:08:34;16.20;85.50
40538;DHT22;27925;41.874;12.526;2022-10-15T03:11:02;16.10;85.80
40538;DHT22;27925;41.874;12.526;2022-10-15T03:13:28;16.10;85.70
40538;DHT22;27925;41.874;12.526;2022-10-15T03:15:54;16.20;85.80
40538;DHT22;27925;41.874;12.526;2022-10-15T03:18:21;16.20;85.80
40538;DHT22;27925;41.874;12.526;2022-10-15T03:20:54;16.20;85.90
40538;DHT22;27925;41.874;12.526;2022-10-15T03:23:20;16.20;85.70
40538;DHT22;27925;41.874;12.526;2022-10-15T03:25:46;16.20;85.90
40538;DHT22;27925;41.874;12.526;2022-10-15T03:28:12;16.10;85.80
40538;DHT22;27925;41.874;12.526;2022-10-15T03:30:38;16.10;85.90
40538;DHT22;27925;41.874;12.526;2022-10-15T03:33:05;16.10;86.10
40538;DHT22;27925;41.874;12.526;2022-10-15T03:35:31;16.10;86.50
40538;DHT22;27925;41.874;12.526;2022-10-15T03:37:56;16.00;86.10
40538;DHT22;27925;41.874;12.526;2022-10-15T03:40:22;16.00;86.30
40538;DHT22;27925;41.874;12.526;2022-10-15T03:42:50;16.00;86.10
40538;DHT22;27925;41.874;12.526;2022-10-15T03:45:17;16.00;86.30
40538;DHT22;27925;41.874;12.526;2022-10-15T03:47:43;16.00;86.20
40538;DHT22;27925;41.874;12.526;2022-10-15T03:50:09;16.00;86.30
40538;DHT22;27925;41.874;12.526;2022-10-15T03:52:36;16.10;86.30
40538;DHT22;27925;41.874;12.526;2022-10-15T03:55:02;16.10;86.30
40538;DHT22;27925;41.874;12.526;2022-10-15T03:57:28;16.10;86.30
40538;DHT22;27925;41.874;12.526;2022-10-15T03:59:54;16.10;86.20
40538;DHT22;27925;41.874;12.526;2022-10-15T04:02:21;16.00;86.20
40538;DHT22;27925;41.874;12.526;2022-10-15T04:04:47;16.00;86.80
40538;DHT22;27925;41.874;12.526;2022-10-15T04:07:15;16.00;86.30
40538;DHT22;27925;41.874;12.526;2022-10-15T04:09:41;16.00;87.00
40538;DHT22;27925;41.874;12.526;2022-10-15T04:12:07;15.90;86.40
40538;DHT22;27925;41.874;12.526;2022-10-15T04:14:32;15.90;86.50
40538;DHT22;27925;41.874;12.526;2022-10-15T04:16:58;15.90;86.60
40538;DHT22;27925;41.874;12.526;2022-10-15T04:19:24;15.90;86.70
40538;DHT22;27925;41.874;12.526;2022-10-15T04:21:49;15.90;86.80
40538;DHT22;27925;41.874;12.526;2022-10-15T04:24:15;15.80;86.70
40538;DHT22;27925;41.874;12.526;2022-10-15T04:26:41;15.80;87.10
40538;DHT22;27925;41.874;12.526;2022-10-15T04:29:06;15.80;87.00
40538;DHT22;27925;41.874;12.526;2022-10-15T04:31:32;15.80;87.30
40538;DHT22;27925;41.874;12.526;2022-10-15T04:33:59;15.70;87.10
40538;DHT22;27925;41.874;12.526;2022-10-15T04:36:25;15.70;87.00
40538;DHT22;27925;41.874;12.526;2022-10-15T04:38:51;15.70;87.30
40538;DHT22;27925;41.874;12.526;2022-10-15T04:41:17;15.70;87.30
40538;DHT22;27925;41.874;12.526;2022-10-15T04:43:43;15.70;87.40
40538;DHT22;27925;41.874;12.526;2022-10-15T04:46:09;15.70;87.30
40538;DHT22;27925;41.874;12.526;2022-10-15T04:48:36;15.70;87.30
40538;DHT22;27925;41.874;12.526;2022-10-15T04:51:08;15.70;87.30
40538;DHT22;27925;41.874;12.526;2022-10-15T04:53:36;15.70;88.00
40538;DHT22;27925;41.874;12.526;2022-10-15T04:56:08;15.70;87.20
40538;DHT22;27925;41.874;12.526;2022-10-15T04:58:35;15.70;87.30
40538;DHT22;27925;41.874;12.526;2022-10-15T05:01:07;15.70;87.40
40538;DHT22;27925;41.874;12.526;2022-10-15T05:03:33;15.70;87.30
40538;DHT22;27925;41.874;12.526;2022-10-15T05:06:07;15.70;87.40
40538;DHT22;27925;41.874;12.526;2022-10-15T05:08:34;15.70;87.40
40538;DHT22;27925;41.874;12.526;2022-10-15T05:11:04;15.80;87.50
40538;DHT22;27925;41.874;12.526;2022-10-15T05:13:31;15.80;87.30
40538;DHT22;27925;41.874;12.526;2022-10-15T05:16:11;15.80;87.20
40538;DHT22;27925;41.874;12.526;2022-10-15T05:18:38;15.80;87.60
40538;DHT22;27925;41.874;12.526;2022-10-15T05:21:04;15.80;87.10
40538;DHT22;27925;41.874;12.526;2022-10-15T05:23:30;15.80;87.10
40538;DHT22;27925;41.874;12.526;2022-10-15T05:26:00;15.80;87.30
40538;DHT22;27925;41.874;12.526;2022-10-15T05:28:27;15.80;87.00
40538;DHT22;27925;41.874;12.526;2022-10-15T05:31:01;15.80;87.40
40538;DHT22;27925;41.874;12.526;2022-10-15T05:33:27;15.80;87.80
40538;DHT22;27925;41.874;12.526;2022-10-15T05:35:53;15.70;87.40
40538;DHT22;27925;41.874;12.526;2022-10-15T05:38:19;15.70;87.30
40538;DHT22;27925;41.874;12.526;2022-10-15T05:40:48;15.70;87.60
40538;DHT22;27925;41.874;12.526;2022-10-15T05:43:14;15.70;87.50
40538;DHT22;27925;41.874;12.526;2022-10-15T05:45:40;15.70;87.20
40538;DHT22;27925;41.874;12.526;2022-10-15T05:48:06;15.70;87.20
40538;DHT22;27925;41.874;12.526;2022-10-15T05:50:32;15.70;87.40
40538;DHT22;27925;41.874;12.526;2022-10-15T05:52:58;15.70;87.20
40538;DHT22;27925;41.874;12.526;2022-10-15T05:55:23;15.80;87.20
40538;DHT22;27925;41.874;12.526;2022-10-15T05:57:49;15.80;87.10
40538;DHT22;27925;41.874;12.526;2022-10-15T06:00:15;15.80;87.10
40538;DHT22;27925;41.874;12.526;2022-10-15T06:02:41;15.80;87.00
40538;DHT22;27925;41.874;12.526;2022-10-15T06:05:06;15.80;86.80
40538;DHT22;27925;41.874;12.526;2022-10-15T06:07:34;15.80;86.90
40538;DHT22;27925;41.874;12.526;2022-10-15T06:10:00;15.80;87.30
40538;DHT22;27925;41.874;12.526;2022-10-15T06:12:25;15.90;86.80
40538;DHT22;27925;41.874;12.526;2022-10-15T06:14:51;15.90;86.60
40538;DHT22;27925;41.874;12.526;2022-10-15T06:17:19;15.90;86.70
40538;DHT22;27925;41.874;12.526;2022-10-15T06:19:44;16.00;86.90
40538;DHT22;27925;41.874;12.526;2022-10-15T06:22:10;16.10;86.20
40538;DHT22;27925;41.874;12.526;2022-10-15T06:24:36;16.20;86.10
40538;DHT22;27925;41.874;12.526;2022-10-15T06:27:01;16.30;85.50
40538;DHT22;27925;41.874;12.526;2022-10-15T06:29:27;16.30;84.90
40538;DHT22;27925;41.874;12.526;2022-10-15T06:31:53;16.50;84.50
40538;DHT22;27925;41.874;12.526;2022-10-15T06:34:18;16.60;84.30
40538;DHT22;27925;41.874;12.526;2022-10-15T06:36:44;16.70;84.20
40538;DHT22;27925;41.874;12.526;2022-10-15T06:39:10;16.80;83.80
40538;DHT22;27925;41.874;12.526;2022-10-15T06:41:35;16.80;83.40
40538;DHT22;27925;41.874;12.526;2022-10-15T06:44:01;16.90;83.40
40538;DHT22;27925;41.874;12.526;2022-10-15T06:46:27;17.00;83.40
40538;DHT22;27925;41.874;12.526;2022-10-15T06:48:53;17.10;83.20
40538;DHT22;27925;41.874;12.526;2022-10-15T06:51:20;17.20;82.70
40538;DHT22;27925;41.874;12.526;2022-10-15T06:53:46;17.40;82.60
40538;DHT22;27925;41.874;12.526;2022-10-15T06:56:12;17.50;82.30
40538;DHT22;27925;41.874;12.526;2022-10-15T06:58:40;17.60;81.70
40538;DHT22;27925;41.874;12.526;2022-10-15T07:01:07;17.70;80.70
40538;DHT22;27925;41.874;12.526;2022-10-15T07:03:34;17.80;80.70
40538;DHT22;27925;41.874;12.526;2022-10-15T07:06:05;17.90;80.40
40538;DHT22;27925;41.874;12.526;2022-10-15T07:08:32;18.00;80.20
40538;DHT22;27925;41.874;12.526;2022-10-15T07:11:04;18.10;79.70
40538;DHT22;27925;41.874;12.526;2022-10-15T07:13:31;18.10;79.80
40538;DHT22;27925;41.874;12.526;2022-10-15T07:15:57;18.10;78.80
40538;DHT22;27925;41.874;12.526;2022-10-15T07:18:23;18.20;78.70
40538;DHT22;27925;41.874;12.526;2022-10-15T07:20:49;18.20;78.30
40538;DHT22;27925;41.874;12.526;2022-10-15T07:23:21;18.30;78.40
40538;DHT22;27925;41.874;12.526;2022-10-15T07:25:47;18.30;77.60
40538;DHT22;27925;41.874;12.526;2022-10-15T07:28:13;18.40;77.50
40538;DHT22;27925;41.874;12.526;2022-10-15T07:30:38;18.40;76.90
40538;DHT22;27925;41.874;12.526;2022-10-15T07:33:04;18.40;76.80
40538;DHT22;27925;41.874;12.526;2022-10-15T07:35:30;18.50;76.60
40538;DHT22;27925;41.874;12.526;2022-10-15T07:38:02;18.40;77.00
40538;DHT22;27925;41.874;12.526;2022-10-15T07:40:29;18.50;76.50
40538;DHT22;27925;41.874;12.526;2022-10-15T07:42:56;18.50;75.90
40538;DHT22;27925;41.874;12.526;2022-10-15T07:45:23;18.50;75.60
40538;DHT22;27925;41.874;12.526;2022-10-15T07:47:50;18.50;75.20
40538;DHT22;27925;41.874;12.526;2022-10-15T07:50:16;18.50;75.70
40538;DHT22;27925;41.874;12.526;2022-10-15T07:52:41;18.50;76.30
40538;DHT22;27925;41.874;12.526;2022-10-15T07:55:07;18.40;75.90
40538;DHT22;27925;41.874;12.526;2022-10-15T07:57:33;18.40;75.50
40538;DHT22;27925;41.874;12.526;2022-10-15T07:59:59;18.40;75.60
40538;DHT22;27925;41.874;12.526;2022-10-15T08:02:25;18.50;75.60
40538;DHT22;27925;41.874;12.526;2022-10-15T08:04:51;18.50;75.70
40538;DHT22;27925;41.874;12.526;2022-10-15T08:07:16;18.50;75.90
40538;DHT22;27925;41.874;12.526;2022-10-15T08:09:43;18.50;75.30
40538;DHT22;27925;41.874;12.526;2022-10-15T08:12:08;18.60;75.50
40538;DHT22;27925;41.874;12.526;2022-10-15T08:14:35;18.60;75.60
40538;DHT22;27925;41.874;12.526;2022-10-15T08:17:02;18.70;75.50
40538;DHT22;27925;41.874;12.526;2022-10-15T08:19:28;18.70;75.10
40538;DHT22;27925;41.874;12.526;2022-10-15T08:21:54;18.70;75.20
40538;DHT22;27925;41.874;12.526;2022-10-15T08:24:21;18.70;75.10
40538;DHT22;27925;41.874;12.526;2022-10-15T08:26:46;18.70;75.30
40538;DHT22;27925;41.874;12.526;2022-10-15T08:29:15;18.70;75.20
40538;DHT22;27925;41.874;12.526;2022-10-15T08:31:41;18.80;76.10
40538;DHT22;27925;41.874;12.526;2022-10-15T08:34:07;18.80;75.30
40538;DHT22;27925;41.874;12.526;2022-10-15T08:36:33;18.90;75.10
40538;DHT22;27925;41.874;12.526;2022-10-15T08:38:58;18.90;75.00
40538;DHT22;27925;41.874;12.526;2022-10-15T08:41:37;18.90;75.30
40538;DHT22;27925;41.874;12.526;2022-10-15T08:46:48;18.90;76.10
40538;DHT22;27925;41.874;12.526;2022-10-15T08:54:47;19.10;76.30
40538;DHT22;27925;41.874;12.526;2022-10-15T09:00:21;19.30;76.30
40538;DHT22;27925;41.874;12.526;2022-10-15T09:02:59;19.40;75.30
40538;DHT22;27925;41.874;12.526;2022-10-15T09:08:19;19.50;75.90
40538;DHT22;27925;41.874;12.526;2022-10-15T09:10:49;19.50;75.10
40538;DHT22;27925;41.874;12.526;2022-10-15T09:13:33;19.60;74.80
40538;DHT22;27925;41.874;12.526;2022-10-15T09:16:16;19.70;75.50
40538;DHT22;27925;41.874;12.526;2022-10-15T09:18:47;19.80;75.00
40538;DHT22;27925;41.874;12.526;2022-10-15T09:21:14;19.90;75.70
40538;DHT22;27925;41.874;12.526;2022-10-15T09:23:41;20.00;75.50
40538;DHT22;27925;41.874;12.526;2022-10-15T09:29:26;20.20;75.50
40538;DHT22;27925;41.874;12.526;2022-10-15T09:32:12;20.20;74.70
40538;DHT22;27925;41.874;12.526;2022-10-15T09:34:52;20.30;75.30
40538;DHT22;27925;41.874;12.526;2022-10-15T09:37:35;20.40;75.00
40538;DHT22;27925;41.874;12.526;2022-10-15T09:43:25;20.60;74.70
40538;DHT22;27925;41.874;12.526;2022-10-15T09:45:56;20.70;74.90
40538;DHT22;27925;41.874;12.526;2022-10-15T09:48:22;20.90;75.70
40538;DHT22;27925;41.874;12.526;2022-10-15T09:50:57;21.00;73.90
40538;DHT22;27925;41.874;12.526;2022-10-15T09:53:50;21.10;73.80
40538;DHT22;27925;41.874;12.526;2022-10-15T09:56:25;21.20;73.50
40538;DHT22;27925;41.874;12.526;2022-10-15T09:58:57;21.20;73.20
40538;DHT22;27925;41.874;12.526;2022-10-15T10:01:29;21.30;73.20
40538;DHT22;27925;41.874;12.526;2022-10-15T10:04:18;21.40;73.60
40538;DHT22;27925;41.874;12.526;2022-10-15T10:06:50;21.50;72.60
40538;DHT22;27925;41.874;12.526;2022-10-15T10:10:06;21.60;72.50
40538;DHT22;27925;41.874;12.526;2022-10-15T10:12:19;21.70;73.10
40538;DHT22;27925;41.874;12.526;2022-10-15T10:14:53;21.80;72.80
40538;DHT22;27925;41.874;12.526;2022-10-15T10:17:24;22.00;71.80
40538;DHT22;27925;41.874;12.526;2022-10-15T10:20:16;22.00;71.40
40538;DHT22;27925;41.874;12.526;2022-10-15T10:22:53;22.10;70.00
40538;DHT22;27925;41.874;12.526;2022-10-15T10:30:49;22.30;70.80
40538;DHT22;27925;41.874;12.526;2022-10-15T10:33:27;22.40;68.00
40538;DHT22;27925;41.874;12.526;2022-10-15T10:35:54;22.50;69.10
40538;DHT22;27925;41.874;12.526;2022-10-15T10:38:36;22.60;68.70
40538;DHT22;27925;41.874;12.526;2022-10-15T10:41:08;22.70;67.70
40538;DHT22;27925;41.874;12.526;2022-10-15T10:43:39;22.70;66.70
40538;DHT22;27925;41.874;12.526;2022-10-15T10:51:17;23.00;64.60
40538;DHT22;27925;41.874;12.526;2022-10-15T10:54:00;23.10;62.50
40538;DHT22;27925;41.874;12.526;2022-10-15T10:56:35;23.20;62.40
40538;DHT22;27925;41.874;12.526;2022-10-15T10:59:26;23.20;61.50
40538;DHT22;27925;41.874;12.526;2022-10-15T11:01:53;23.30;63.10
40538;DHT22;27925;41.874;12.526;2022-10-15T11:04:29;23.30;62.10
40538;DHT22;27925;41.874;12.526;2022-10-15T11:07:03;23.50;62.10
40538;DHT22;27925;41.874;12.526;2022-10-15T11:15:38;23.80;61.10
40538;DHT22;27925;41.874;12.526;2022-10-15T11:37:45;24.50;60.00
40538;DHT22;27925;41.874;12.526;2022-10-15T11:46:41;24.70;59.80
40538;DHT22;27925;41.874;12.526;2022-10-15T11:49:25;24.70;59.40
40538;DHT22;27925;41.874;12.526;2022-10-15T11:57:38;24.70;58.70
40538;DHT22;27925;41.874;12.526;2022-10-15T12:00:24;24.80;59.30
40538;DHT22;27925;41.874;12.526;2022-10-15T12:02:54;24.80;57.50
40538;DHT22;27925;41.874;12.526;2022-10-15T12:05:30;24.80;58.30
40538;DHT22;27925;41.874;12.526;2022-10-15T12:08:00;24.90;58.00
40538;DHT22;27925;41.874;12.526;2022-10-15T12:10:35;25.00;57.90
40538;DHT22;27925;41.874;12.526;2022-10-15T12:13:15;25.10;57.30
40538;DHT22;27925;41.874;12.526;2022-10-15T12:20:59;25.20;56.70
40538;DHT22;27925;41.874;12.526;2022-10-15T12:28:51;25.20;56.30
40538;DHT22;27925;41.874;12.526;2022-10-15T12:31:17;25.20;56.50
40538;DHT22;27925;41.874;12.526;2022-10-15T12:33:50;25.20;56.10
40538;DHT22;27925;41.874;12.526;2022-10-15T12:38:58;25.40;56.20
40538;DHT22;27925;41.874;12.526;2022-10-15T12:41:45;25.50;56.10
40538;DHT22;27925;41.874;12.526;2022-10-15T12:44:26;25.50;56.00
40538;DHT22;27925;41.874;12.526;2022-10-15T12:46:52;25.60;54.90
40538;DHT22;27925;41.874;12.526;2022-10-15T12:51:50;25.70;55.30
40538;DHT22;27925;41.874;12.526;2022-10-15T12:54:45;25.80;55.50
40538;DHT22;27925;41.874;12.526;2022-10-15T12:59:59;25.90;54.20
40538;DHT22;27925;41.874;12.526;2022-10-15T13:02:46;25.90;54.00
40538;DHT22;27925;41.874;12.526;2022-10-15T13:05:29;25.90;53.90
40538;DHT22;27925;41.874;12.526;2022-10-15T13:07:58;25.90;53.80
40538;DHT22;27925;41.874;12.526;2022-10-15T13:10:41;25.90;53.60
40538;DHT22;27925;41.874;12.526;2022-10-15T13:13:15;26.00;53.90
40538;DHT22;27925;41.874;12.526;2022-10-15T13:15:56;26.00;53.70
40538;DHT22;27925;41.874;12.526;2022-10-15T13:18:23;26.10;53.50
40538;DHT22;27925;41.874;12.526;2022-10-15T13:20:50;26.10;53.70
40538;DHT22;27925;41.874;12.526;2022-10-15T13:23:28;26.10;53.50
40538;DHT22;27925;41.874;12.526;2022-10-15T13:28:38;26.20;53.70
40538;DHT22;27925;41.874;12.526;2022-10-15T13:31:14;26.20;53.50
40538;DHT22;27925;41.874;12.526;2022-10-15T13:33:43;26.30;52.40
40538;DHT22;27925;41.874;12.526;2022-10-15T13:36:28;26.30;53.30
40538;DHT22;27925;41.874;12.526;2022-10-15T13:39:06;26.30;52.20
40538;DHT22;27925;41.874;12.526;2022-10-15T13:41:34;26.30;52.60
40538;DHT22;27925;41.874;12.526;2022-10-15T13:44:01;26.30;53.40
40538;DHT22;27925;41.874;12.526;2022-10-15T13:46:30;26.30;53.30
40538;DHT22;27925;41.874;12.526;2022-10-15T13:49:00;26.30;53.40
40538;DHT22;27925;41.874;12.526;2022-10-15T13:51:32;26.30;53.20
40538;DHT22;27925;41.874;12.526;2022-10-15T13:54:01;26.30;53.30
40538;DHT22;27925;41.874;12.526;2022-10-15T13:56:32;26.30;53.20
40538;DHT22;27925;41.874;12.526;2022-10-15T13:59:01;26.30;53.40
40538;DHT22;27925;41.874;12.526;2022-10-15T14:01:28;26.30;53.30
40538;DHT22;27925;41.874;12.526;2022-10-15T14:04:02;26.30;52.90
40538;DHT22;27925;41.874;12.526;2022-10-15T14:06:33;26.30;53.10
40538;DHT22;27925;41.874;12.526;2022-10-15T14:11:25;26.30;53.00
40538;DHT22;27925;41.874;12.526;2022-10-15T14:13:54;26.30;53.20
40538;DHT22;27925;41.874;12.526;2022-10-15T14:16:30;26.30;53.00
40538;DHT22;27925;41.874;12.526;2022-10-15T14:19:10;26.20;52.00
40538;DHT22;27925;41.874;12.526;2022-10-15T14:21:43;26.20;52.40
40538;DHT22;27925;41.874;12.526;2022-10-15T14:26:45;26.20;52.50
40538;DHT22;27925;41.874;12.526;2022-10-15T14:29:24;26.10;53.40
40538;DHT22;27925;41.874;12.526;2022-10-15T14:31:52;26.10;52.80
40538;DHT22;27925;41.874;12.526;2022-10-15T14:36:59;26.20;53.60
40538;DHT22;27925;41.874;12.526;2022-10-15T14:39:34;26.20;53.70
40538;DHT22;27925;41.874;12.526;2022-10-15T14:42:01;26.20;53.90
40538;DHT22;27925;41.874;12.526;2022-10-15T14:44:41;26.20;54.40
40538;DHT22;27925;41.874;12.526;2022-10-15T14:47:16;26.10;54.40
40538;DHT22;27925;41.874;12.526;2022-10-15T14:49:43;26.20;54.70
40538;DHT22;27925;41.874;12.526;2022-10-15T14:52:15;26.20;55.00
40538;DHT22;27925;41.874;12.526;2022-10-15T14:54:47;26.10;54.90
40538;DHT22;27925;41.874;12.526;2022-10-15T14:57:35;26.10;55.00
40538;DHT22;27925;41.874;12.526;2022-10-15T15:00:05;26.00;54.90
40538;DHT22;27925;41.874;12.526;2022-10-15T15:02:36;26.00;55.30
40538;DHT22;27925;41.874;12.526;2022-10-15T15:07:38;25.90;55.40
40538;DHT22;27925;41.874;12.526;2022-10-15T15:10:07;25.80;55.90
40538;DHT22;27925;41.874;12.526;2022-10-15T15:12:33;25.80;56.10
40538;DHT22;27925;41.874;12.526;2022-10-15T15:14:59;25.70;56.70
40538;DHT22;27925;41.874;12.526;2022-10-15T15:17:28;25.60;56.90
40538;DHT22;27925;41.874;12.526;2022-10-15T15:19:55;25.50;57.40
40538;DHT22;27925;41.874;12.526;2022-10-15T15:22:31;25.50;57.70
40538;DHT22;27925;41.874;12.526;2022-10-15T15:24:59;25.40;57.80
40538;DHT22;27925;41.874;12.526;2022-10-15T15:27:31;25.40;58.10
40538;DHT22;27925;41.874;12.526;2022-10-15T15:30:04;25.30;58.20
40538;DHT22;27925;41.874;12.526;2022-10-15T15:32:30;25.20;58.60
40538;DHT22;27925;41.874;12.526;2022-10-15T15:34:58;25.10;58.70
40538;DHT22;27925;41.874;12.526;2022-10-15T15:37:25;25.00;58.90
40538;DHT22;27925;41.874;12.526;2022-10-15T15:39:52;24.90;59.20
40538;DHT22;27925;41.874;12.526;2022-10-15T15:42:23;24.80;59.90
40538;DHT22;27925;41.874;12.526;2022-10-15T15:44:49;24.70;59.50
40538;DHT22;27925;41.874;12.526;2022-10-15T15:47:16;24.70;59.70
40538;DHT22;27925;41.874;12.526;2022-10-15T15:49:42;24.60;59.80
40538;DHT22;27925;41.874;12.526;2022-10-15T15:52:10;24.50;59.90
40538;DHT22;27925;41.874;12.526;2022-10-15T15:54:41;24.50;60.30
40538;DHT22;27925;41.874;12.526;2022-10-15T15:57:07;24.40;60.30
40538;DHT22;27925;41.874;12.526;2022-10-15T15:59:32;24.30;60.60
40538;DHT22;27925;41.874;12.526;2022-10-15T16:01:58;24.20;60.90
40538;DHT22;27925;41.874;12.526;2022-10-15T16:04:24;24.20;61.20
40538;DHT22;27925;41.874;12.526;2022-10-15T16:06:49;24.10;61.60
40538;DHT22;27925;41.874;12.526;2022-10-15T16:09:16;24.00;61.70
40538;DHT22;27925;41.874;12.526;2022-10-15T16:11:42;23.90;62.00
40538;DHT22;27925;41.874;12.526;2022-10-15T16:14:09;23.80;62.20
40538;DHT22;27925;41.874;12.526;2022-10-15T16:16:38;23.70;61.60
40538;DHT22;27925;41.874;12.526;2022-10-15T16:19:05;23.60;63.00
40538;DHT22;27925;41.874;12.526;2022-10-15T16:21:32;23.50;63.20
40538;DHT22;27925;41.874;12.526;2022-10-15T16:23:59;23.40;63.40
40538;DHT22;27925;41.874;12.526;2022-10-15T16:26:28;23.30;63.70
40538;DHT22;27925;41.874;12.526;2022-10-15T16:28:54;23.20;64.10
40538;DHT22;27925;41.874;12.526;2022-10-15T16:31:25;23.20;64.40
40538;DHT22;27925;41.874;12.526;2022-10-15T16:33:51;23.10;63.10
40538;DHT22;27925;41.874;12.526;2022-10-15T16:36:17;23.00;64.30
40538;DHT22;27925;41.874;12.526;2022-10-15T16:38:44;22.90;64.70
40538;DHT22;27925;41.874;12.526;2022-10-15T16:41:11;22.90;65.20
40538;DHT22;27925;41.874;12.526;2022-10-15T16:43:37;22.80;65.40
40538;DHT22;27925;41.874;12.526;2022-10-15T16:46:03;22.80;66.10
40538;DHT22;27925;41.874;12.526;2022-10-15T16:48:30;22.70;66.30
40538;DHT22;27925;41.874;12.526;2022-10-15T16:51:04;22.70;66.40
40538;DHT22;27925;41.874;12.526;2022-10-15T16:53:32;22.60;66.60
40538;DHT22;27925;41.874;12.526;2022-10-15T16:55:59;22.50;66.80
40538;DHT22;27925;41.874;12.526;2022-10-15T16:58:25;22.50;67.30
40538;DHT22;27925;41.874;12.526;2022-10-15T17:00:51;22.40;67.20
40538;DHT22;27925;41.874;12.526;2022-10-15T17:03:17;22.40;67.40
40538;DHT22;27925;41.874;12.526;2022-10-15T17:05:42;22.30;67.60
40538;DHT22;27925;41.874;12.526;2022-10-15T17:08:08;22.30;68.10
40538;DHT22;27925;41.874;12.526;2022-10-15T17:10:41;22.20;67.30
40538;DHT22;27925;41.874;12.526;2022-10-15T17:13:07;22.20;69.00
40538;DHT22;27925;41.874;12.526;2022-10-15T17:15:33;22.10;69.00
40538;DHT22;27925;41.874;12.526;2022-10-15T17:18:00;22.10;67.50
40538;DHT22;27925;41.874;12.526;2022-10-15T17:20:30;22.10;68.10
40538;DHT22;27925;41.874;12.526;2022-10-15T17:22:58;22.00;70.90
40538;DHT22;27925;41.874;12.526;2022-10-15T17:25:24;22.00;70.70
40538;DHT22;27925;41.874;12.526;2022-10-15T17:27:50;22.00;70.10
40538;DHT22;27925;41.874;12.526;2022-10-15T17:30:17;21.90;70.50
40538;DHT22;27925;41.874;12.526;2022-10-15T17:32:42;21.80;70.60
40538;DHT22;27925;41.874;12.526;2022-10-15T17:35:09;21.80;71.90
40538;DHT22;27925;41.874;12.526;2022-10-15T17:37:35;21.80;71.10
40538;DHT22;27925;41.874;12.526;2022-10-15T17:40:01;21.80;71.10